Weather observations for the past three days for
Pierce County-Thun Field
Metric (Imperial)
Date Time (pdt) Wind (kph) Vis. (km) Weather Sky Cond. Temperature (ºC) Relative Humidity Wind Chill (°C) Heat Index (°C) Pressure Precipitation (cm)
Air Dwpt 6 hour altimeter (cm) sea level (mb) 1 hr 3 hr 6 hr
Max. Min.
04 01:55 Calm 16.09 Fair CLR 12 11 94% 75.74 0.0
04 01:35 Calm 16.09 Fair CLR 12 11 94% 75.74 0.0
04 01:15 Calm 16.09 Fair CLR 13 12 94% 75.74 0.0
04 00:55 Calm 16.09 Fair CLR 13 11 88% 75.74 0.0
04 00:35 Calm 16.09 Fair CLR 13 11 88% 75.74 0.0
04 00:15 Calm 16.09 Fair CLR 13 11 88% 75.74 0.0
03 23:55 Calm 16.09 Fair CLR 13 11 88% 75.74 0.0
03 23:35 Calm 16.09 Fair CLR 14 12 88% 75.74 0.0
03 23:15 Calm 16.09 Fair CLR 14 11 82% 75.74 0.0
03 22:55 Calm 16.09 Fair CLR 15 11 77% 75.74 0.0
03 22:35 Calm 16.09 Fair CLR 14 11 82% 75.74 0.0
03 22:15 Calm 16.09 Fair CLR 15 11 77% 75.74 0.0
03 21:55 Calm 16.09 Fair CLR 16 11 72% 75.74 0.0
03 21:35 Calm 16.09 Fair CLR 17 10 64% 75.74 0.0
03 21:15 Calm 16.09 Fair CLR 17 11 68% 75.74 0.0
03 20:55 Calm 16.09 Fair CLR 18 11 64% 75.74 0.0
03 20:35 Calm 16.09 Fair CLR 19 10 56% 75.72 0.0
03 20:15 Calm 16.09 Fair CLR 20 11 56% 75.72 0.0
03 19:55 Calm 16.09 Fair CLR 22 10 47% 75.72 0.0
03 19:35 Calm 16.09 Fair CLR 23 10 44% 75.72 0.0
03 19:15 Calm 16.09 Fair CLR 25 9 36% 26 75.72 0.0
03 18:55 Calm 16.09 Fair CLR 26 9 34% 26 75.72 0.0
03 18:35 Calm 16.09 Fair CLR 26 9 34% 26 75.72 0.0
03 18:15 Vrbl 7 16.09 Fair CLR 27 9 32% 27 75.74 0.0
03 17:55 Calm 16.09 Fair CLR 27 9 32% 27 75.74 0.0
03 17:35 Calm 16.09 Fair CLR 28 9 30% 27 75.77 0.0
03 17:15 Vrbl 7 16.09 Fair CLR 28 9 30% 27 75.77 0.0
03 16:55 Calm 16.09 Fair CLR 28 9 30% 27 75.77 0.0
03 16:35 Calm 16.09 Fair CLR 28 9 30% 27 75.79 0.0
03 16:15 Calm 16.09 Fair CLR 28 10 32% 27 75.82 0.0
03 15:55 Calm 16.09 Fair CLR 28 10 32% 27 75.82 0.0
03 15:35 Calm 16.09 Fair CLR 28 11 35% 27 75.84 0.0
03 15:15 NW 7 16.09 Fair CLR 27 11 37% 27 75.87 0.0
03 14:55 Calm 16.09 Fair CLR 27 11 37% 27 75.9 0.0
03 14:35 Vrbl 6 16.09 Fair CLR 27 11 37% 27 75.9 0.0
03 14:15 Calm 16.09 Fair CLR 26 11 39% 26 75.92 0.0
03 13:55 Vrbl 7 16.09 Fair CLR 26 11 39% 26 75.92 0.0
03 13:35 Calm 16.09 Fair CLR 26 12 42% 26 75.95 0.0
03 13:15 Calm 16.09 Fair CLR 26 12 42% 26 75.95 0.0
03 12:55 Calm 16.09 Fair CLR 26 11 39% 26 75.97 0.0
03 12:35 Vrbl 6 16.09 Fair CLR 26 11 39% 26 76 0.0
03 11:55 Calm 16.09 Fair CLR 24 12 47% 25 76.02 0.0
03 11:35 Calm 16.09 Fair CLR 24 12 47% 25 76.05 0.0
03 11:15 Calm 16.09 Fair CLR 23 12 50% 76.05 0.0
03 10:55 Calm 16.09 Fair CLR 23 12 50% 76.05 0.0
03 10:35 Calm 16.09 Fair CLR 22 12 53% 76.05 0.0
03 10:15 Calm 16.09 Fair CLR 22 11 50% 76.07 0.0
03 09:55 Calm 16.09 Fair CLR 21 11 53% 76.07 0.0
03 09:35 Calm 16.09 Fair CLR 21 11 53% 76.07 0.0
03 09:15 Calm 16.09 Fair CLR 21 12 57% 76.07 0.0
03 08:55 Calm 16.09 Fair CLR 20 12 60% 76.07 0.0
03 08:35 Calm 16.09 Fair CLR 18 13 73% 76.1 0.0
03 08:15 Calm 16.09 Fair CLR 17 14 83% 76.07 0.0
03 07:55 Calm 16.09 Light Drizzle CLR 16 14 88% 76.07 0.0
03 07:35 Calm 16.09 Light Drizzle CLR 13 13 100% 76.07 0.0
03 07:15 Calm 16.09 Light Drizzle CLR 12 12 100% 76.07 0.0
03 06:55 Calm 16.09 Light Drizzle CLR 11 11 100% 76.07 0.0
03 06:35 Calm 16.09 Light Drizzle CLR 11 11 100% 76.07 0.0
03 06:15 Calm 14.48 Light Drizzle CLR 10 10 100% 76.07 0.0
03 05:55 Calm 14.48 Light Drizzle CLR 10 10 100% 76.05 0.0
03 05:35 Calm 16.09 Light Drizzle CLR 11 11 100% 76.07 0.0
03 05:15 Calm 14.48 Light Drizzle CLR 10 10 100% 76.07 0.0
03 04:55 Calm 16.09 Light Drizzle CLR 11 11 100% 76.07 0.0
03 04:35 Calm 16.09 Light Drizzle CLR 11 11 100% 76.07 0.0
03 04:15 Calm 16.09 Light Drizzle CLR 11 11 100% 76.07 0.0
03 03:55 Calm 16.09 Light Drizzle CLR 11 11 100% 76.07 0.0
03 03:35 Calm 0.00 Light Drizzle NULL 11 11 100% 76.07 0.0
03 03:15 Calm 16.09 Light Drizzle CLR 12 12 100% 76.1 0.0
03 02:55 Calm 16.09 A Few Clouds FEW050 11 11 100% 76.1 0.0
03 02:35 Calm 16.09 Fair CLR 11 11 100% 76.1 0.0
03 02:15 Calm 16.09 Fair CLR 12 11 94% 76.1 0.0
03 01:55 Calm 16.09 Fair CLR 12 11 94% 76.1 0.0
03 01:35 Calm 16.09 Fair CLR 12 11 94% 76.1 0.0
03 01:15 Calm 16.09 Fair CLR 12 11 94% 76.1 0.0
03 00:55 Calm 16.09 Fair CLR 12 11 94% 76.12 0.0
03 00:35 Calm 16.09 Fair CLR 13 11 88% 76.12 0.0
03 00:15 Calm 16.09 Fair CLR 13 11 88% 76.12 0.0
02 23:55 Calm 16.09 Fair CLR 13 12 94% 76.12 0.0
02 23:35 Calm 16.09 Fair CLR 13 12 94% 76.12 0.0
02 23:15 Calm 16.09 Fair CLR 14 12 88% 76.1 0.0
02 22:55 Calm 16.09 Fair CLR 14 12 88% 76.1 0.0
02 22:35 Calm 16.09 Fair CLR 14 12 88% 76.1 0.0
02 22:15 Calm 16.09 Fair CLR 15 11 77% 76.1 0.0
02 21:55 Calm 16.09 Fair CLR 15 11 77% 76.1 0.0
02 21:35 Calm 16.09 Fair CLR 15 11 77% 76.07 0.0
02 21:15 Calm 16.09 Fair CLR 16 11 72% 76.05 0.0
02 20:55 Calm 16.09 Fair CLR 17 11 68% 76.05 0.0
02 20:35 Calm 16.09 Fair CLR 17 11 68% 76.02 0.0
02 20:15 Calm 16.09 Fair CLR 18 12 68% 76 0.0
02 19:55 Calm 16.09 Fair CLR 20 11 56% 76 0.0
02 19:35 Calm 16.09 Fair CLR 21 11 53% 75.97 0.0
02 19:15 Calm 16.09 Fair CLR 22 10 47% 75.97 0.0
02 18:55 Calm 16.09 Fair CLR 23 10 44% 75.97 0.0
02 18:35 Calm 16.09 Fair CLR 23 10 44% 76 0.0
02 18:15 Calm 16.09 Fair CLR 24 10 41% 25 76 0.0
02 17:55 Calm 16.09 Fair CLR 24 10 41% 25 76 0.0
02 17:35 Calm 16.09 Fair CLR 24 10 41% 25 76 0.0
02 17:15 Vrbl 7 16.09 Fair CLR 24 11 44% 25 76 0.0
02 16:55 Vrbl 9 G 19 16.09 Fair CLR 24 11 44% 25 76.02 0.0
02 16:35 Vrbl 9 G 20 16.09 Fair CLR 24 11 44% 25 76.02 0.0
02 16:15 Vrbl 7 G 19 16.09 Fair CLR 24 12 47% 25 76.05 0.0
02 15:55 Calm 16.09 Fair CLR 24 12 47% 25 76.07 0.0
02 15:35 Calm 16.09 Fair CLR 23 12 50% 76.07 0.0
02 15:15 Vrbl 6 16.09 Fair CLR 22 12 53% 76.12 0.0
02 14:55 Calm 16.09 Fair CLR 22 12 53% 76.12 0.0
02 14:35 Calm 16.09 Fair CLR 23 12 50% 76.12 0.0
02 14:15 Vrbl 7 16.09 Fair CLR 23 12 50% 76.15 0.0
02 13:55 Calm 16.09 Fair CLR 22 11 50% 76.15 0.0
02 13:35 Calm 16.09 Fair CLR 21 12 57% 76.17 0.0
02 13:15 Vrbl 7 G 20 16.09 Fair CLR 21 11 53% 76.17 0.0
02 12:55 Calm 16.09 Fair CLR 20 11 56% 76.2 0.0
02 12:35 Calm 16.09 Fair CLR 20 11 56% 76.23 0.0
02 12:15 Calm 16.09 Fair CLR 19 11 60% 76.23 0.0
02 11:55 Calm 16.09 Fair CLR 19 11 60% 76.25 0.0
02 11:15 Calm 16.09 Fair CLR 17 11 68% 76.28 0.0
02 10:55 Calm 16.09 Fair CLR 16 10 68% 76.3 0.0
02 10:35 Calm 16.09 Fair CLR 15 10 72% 76.3 0.0
02 10:15 Calm 16.09 Fair CLR 14 10 77% 76.28 0.0
02 09:55 Calm 16.09 Fair CLR 14 10 77% 76.28 0.0
02 09:35 Calm 16.09 Fair CLR 13 10 82% 76.28 0.0
02 09:15 Calm 16.09 Fair CLR 12 10 88% 76.28 0.0
02 08:55 Calm 16.09 Partly Cloudy SCT009 12 10 88% 76.28 0.0
02 08:35 Calm 16.09 Overcast OVC008 11 10 94% 76.3 0.0
02 08:15 Calm 16.09 Overcast OVC008 11 10 94% 76.3 0.0
02 07:55 Calm 14.48 Mostly Cloudy BKN007 11 10 94% 76.3 0.0
02 07:35 Calm 14.48 Partly Cloudy SCT007 10 10 100% 76.28 0.0
02 07:15 Calm 16.09 Fair CLR 10 10 100% 76.28 0.0
02 06:55 Calm 16.09 Partly Cloudy FEW007 SCT012 10 10 100% 76.25 0.0
02 06:35 Calm 16.09 Partly Cloudy SCT008 SCT012 10 10 100% 76.28 0.0
02 06:15 Calm 14.48 Fair CLR 10 10 100% 76.28 0.0
02 05:55 Calm 16.09 Partly Cloudy SCT009 10 10 100% 76.25 0.0
02 05:35 Calm 16.09 Mostly Cloudy BKN009 BKN100 10 10 100% 76.28 0.0
02 05:15 Calm 16.09 Partly Cloudy FEW009 SCT110 10 10 100% 76.28 0.0
02 04:55 Calm 16.09 Mostly Cloudy BKN009 BKN085 BKN110 10 10 100% 76.28 0.0
02 04:35 Calm 16.09 Overcast SCT009 BKN065 OVC100 11 10 94% 76.3 0.0
02 04:15 Calm 16.09 Mostly Cloudy FEW009 SCT080 BKN100 11 10 94% 76.3 0.0
02 03:55 Calm 16.09 Overcast BKN009 OVC095 11 10 94% 76.28 0.0
02 03:35 Calm 16.09 Overcast BKN010 BKN050 OVC110 11 10 94% 76.35 0.0
02 03:15 Calm 16.09 Mostly Cloudy FEW050 BKN110 11 10 94% 76.35 0.0
02 02:55 Calm 16.09 Mostly Cloudy BKN110 10 10 100% 76.3 0.0
02 02:35 Calm 16.09 Mostly Cloudy SCT100 BKN120 11 10 94% 76.28 0.0
02 02:15 Calm 16.09 Partly Cloudy FEW046 SCT110 11 10 94% 76.28 0.0
02 01:55 Calm 16.09 Partly Cloudy FEW048 SCT120 11 10 94% 76.28 0.0
02 01:35 Calm 16.09 Partly Cloudy FEW055 SCT110 11 10 94% 76.28 0.0
02 01:15 Calm 16.09 Mostly Cloudy BKN110 12 10 88% 76.3 0.0
02 00:55 Calm 16.09 A Few Clouds FEW110 12 10 88% 76.3 0.0
02 00:35 Calm 16.09 A Few Clouds FEW110 12 10 88% 76.28 0.0
02 00:15 Calm 16.09 Partly Cloudy FEW055 SCT110 12 10 88% 76.28 0.0
01 23:55 Calm 16.09 A Few Clouds FEW050 13 10 82% 76.28 0.0
01 23:35 Calm 16.09 A Few Clouds FEW055 FEW110 13 10 82% 76.25 0.0
01 23:15 Calm 16.09 Mostly Cloudy FEW043 SCT070 BKN110 15 10 72% 76.28 0.0
01 22:55 Calm 16.09 Mostly Cloudy FEW060 FEW075 BKN110 15 11 77% 76.25 0.0
01 22:35 Calm 16.09 Overcast FEW065 OVC110 16 11 72% 76.25 0.0
01 22:15 Calm 16.09 Overcast OVC110 16 10 68% 76.25 0.0
01 21:55 Calm 16.09 Overcast OVC120 16 9 63% 76.23 0.0
01 21:35 Calm 16.09 Overcast OVC120 16 9 63% 76.2 0.0
01 21:15 Calm 16.09 Overcast OVC120 16 9 63% 76.2 0.0
01 20:55 Calm 16.09 Mostly Cloudy BKN120 16 10 68% 76.17 0.0
01 20:35 Calm 16.09 Mostly Cloudy BKN120 17 9 60% 76.15 0.0
01 20:15 Calm 16.09 Mostly Cloudy BKN120 18 8 52% 76.12 0.0
01 19:55 Calm 16.09 Mostly Cloudy BKN120 19 8 49% 76.12 0.0
01 19:35 Vrbl 7 16.09 Partly Cloudy SCT120 20 8 46% 76.1 0.0
01 19:15 Vrbl 9 16.09 A Few Clouds FEW120 21 9 46% 76.07 0.0
01 18:55 Vrbl 7 16.09 Fair CLR 22 10 47% 76.07 0.0
01 18:35 Calm 16.09 Fair CLR 23 9 41% 76.07 0.0
01 18:15 Calm 16.09 Fair CLR 23 9 41% 76.07 0.0
01 17:55 Calm 16.09 A Few Clouds FEW120 24 8 36% 25 76.1 0.0
01 17:35 Calm 16.09 Partly Cloudy SCT120 23 8 38% 76.1 0.0
01 17:15 Calm 16.09 A Few Clouds FEW110 24 8 36% 25 76.1 0.0
01 16:55 Calm 16.09 Partly Cloudy SCT110 24 8 36% 25 76.1 0.0
01 16:35 Calm 16.09 Partly Cloudy SCT110 24 8 36% 25 76.1 0.0
01 16:15 Calm 16.09 Partly Cloudy SCT110 24 8 36% 25 76.12 0.0
01 15:55 Calm 16.09 A Few Clouds FEW110 24 8 36% 25 76.12 0.0
01 15:35 Calm 16.09 Fair CLR 24 8 36% 25 76.15 0.0
01 15:15 Calm 16.09 Fair CLR 24 8 36% 25 76.15 0.0
01 14:55 Calm 16.09 Fair CLR 23 8 38% 76.17 0.0
01 14:35 Calm 16.09 A Few Clouds FEW110 23 8 38% 76.17 0.0
01 14:15 Vrbl 9 16.09 A Few Clouds FEW120 23 7 36% 76.2 0.0
01 13:55 Calm 16.09 Fair CLR 23 8 38% 76.2 0.0
01 13:35 Vrbl 7 16.09 Fair CLR 23 9 41% 76.2 0.0
01 13:15 Calm 16.09 Fair CLR 22 9 44% 76.2 0.0
01 12:55 Calm 16.09 Fair CLR 22 10 47% 76.2 0.0
01 12:35 Calm 16.09 A Few Clouds FEW120 21 10 50% 76.23 0.0
01 12:15 Calm 16.09 Partly Cloudy SCT120 21 10 50% 76.23 0.0
01 11:55 Calm 16.09 A Few Clouds FEW120 19 9 52% 76.25 0.0
01 11:35 Calm 16.09 Fair CLR 19 9 52% 76.25 0.0
01 10:55 Calm 16.09 A Few Clouds FEW110 19 10 56% 76.25 0.0
01 10:35 Calm 16.09 A Few Clouds FEW110 18 10 60% 76.28 0.0
01 10:15 Calm 16.09 Fair CLR 18 10 60% 76.28 0.0
01 09:55 Calm 16.09 Fair CLR 17 11 68% 76.28 0.0
01 09:35 Calm 16.09 Fair CLR 17 11 68% 76.3 0.0
01 09:15 Calm 16.09 Fair CLR 16 10 68% 76.3 0.0
01 08:55 Calm 16.09 A Few Clouds FEW110 15 10 72% 76.33 0.0
01 08:35 Calm 16.09 Fair CLR 15 10 72% 76.3 0.0
01 08:15 Calm 16.09 Fair CLR 14 10 77% 76.3 0.0
01 07:55 Calm 16.09 Fair CLR 13 10 82% 76.3 0.0
01 07:35 Calm 16.09 Fair CLR 11 11 100% 76.3 0.0
01 07:15 Calm 16.09 Fair CLR 9 9 100% 76.28 0.0
01 06:55 Calm 16.09 Fair CLR 8 8 100% 76.28 0.0
01 06:35 Calm 16.09 Fair CLR 8 8 100% 76.25 0.0
01 06:15 Calm 16.09 Fair CLR 8 8 100% 76.25 0.0
01 05:55 Calm 16.09 Fair CLR 8 8 100% 76.25 0.0
01 05:35 Calm 16.09 Fair CLR 8 8 100% 76.25 0.0
01 05:15 Calm 16.09 Fair CLR 8 8 100% 76.25 0.0
01 04:55 Calm 16.09 Fair CLR 8 8 100% 76.25 0.0
01 04:35 Calm 16.09 Fair CLR 9 9 100% 76.25 0.0
01 04:15 Calm 16.09 Fair CLR 9 9 100% 76.25 0.0
01 03:55 Calm 16.09 Fair CLR 9 9 100% 76.25 0.0
01 03:35 Calm 16.09 Fair CLR 10 10 100% 76.23 0.0
01 03:15 Calm 16.09 Fair CLR 10 9 94% 76.23 0.0
01 02:55 Calm 16.09 Fair CLR 10 9 94% 76.23 0.0
01 02:35 Calm 16.09 Fair CLR 10 9 94% 76.2 0.0
01 02:15 Calm 16.09 A Few Clouds FEW055 FEW095 10 9 94% 76.23 0.0
Date Time (pdt) Wind (kph) Vis. (km) Weather Sky Cond. Air Dwpt Max. Min. Relative Humidity Wind Chill (°C) Heat Index (°C) altimeter (cm) sea level (mb) 1 hr 3 hr 6 hr
6 hour
Temperature (ºC) Pressure Precipitation (cm)